Time;durP1;ratioP1;P1;durP2;ratioP2;P2;SDS_P1;SDS_P2;PMS_P1;PMS_P2;Temp;Humidity;BMP_temperature;BMP_pressure;BME280_temperature;BME280_humidity;BME280_pressure;Samples;Min_cycle;Max_cycle;Signal;HPM_P1;HPM_P2
2021/01/14 00:02:16;;;;;;;6.60;1.60;;;;;;;;;;5040624;28;20658;-68
2021/01/14 00:04:42;;;;;;;4.17;2.00;;;;;;;;;;5044286;28;20185;-67
2021/01/14 00:07:07;;;;;;;5.50;1.40;;;;;;;;;;5046369;28;20621;-67
2021/01/14 00:09:32;;;;;;;7.80;1.50;;;;;;;;;;5052365;28;20685;-68
2021/01/14 00:11:57;;;;;;;7.20;2.40;;;;;;;;;;5043516;28;20209;-67
2021/01/14 00:14:22;;;;;;;4.57;1.07;;;;;;;;;;5046392;28;20744;-67
2021/01/14 00:16:47;;;;;;;6.63;1.70;;;;;;;;;;5042083;28;20177;-67
2021/01/14 00:19:14;;;;;;;7.63;1.30;;;;;;;;;;5040002;28;20186;-68
2021/01/14 00:21:40;;;;;;;3.43;1.20;;;;;;;;;;5044395;28;20177;-67
2021/01/14 00:24:06;;;;;;;4.17;1.77;;;;;;;;;;5029143;28;20213;-67
2021/01/14 00:26:31;;;;;;;6.13;1.53;;;;;;;;;;5047009;28;20173;-68
2021/01/14 00:28:56;;;;;;;7.13;2.37;;;;;;;;;;5046044;28;20180;-68
2021/01/14 00:31:22;;;;;;;4.83;1.47;;;;;;;;;;5048266;28;20202;-68
2021/01/14 00:33:47;;;;;;;5.53;1.13;;;;;;;;;;5048895;28;20197;-68
2021/01/14 00:36:12;;;;;;;5.67;1.33;;;;;;;;;;5046307;28;20182;-67
2021/01/14 00:38:37;;;;;;;8.67;1.40;;;;;;;;;;5046242;28;20170;-68
2021/01/14 00:41:02;;;;;;;5.23;1.10;;;;;;;;;;5049074;28;20178;-68
2021/01/14 00:43:31;;;;;;;4.57;1.70;;;;;;;;;;5048115;28;20237;-68
2021/01/14 00:45:56;;;;;;;4.50;1.33;;;;;;;;;;5052055;28;20186;-67
2021/01/14 00:48:21;;;;;;;10.93;1.50;;;;;;;;;;5046681;28;20178;-68
2021/01/14 00:50:46;;;;;;;6.20;1.30;;;;;;;;;;5045730;28;20202;-67
2021/01/14 00:53:11;;;;;;;6.90;1.20;;;;;;;;;;5047579;28;20274;-68
2021/01/14 00:55:37;;;;;;;8.43;1.77;;;;;;;;;;5046581;28;20184;-68
2021/01/14 00:58:02;;;;;;;4.53;1.00;;;;;;;;;;5046666;28;20562;-68
2021/01/14 01:00:27;;;;;;;3.50;1.10;;;;;;;;;;5044158;28;20182;-68
2021/01/14 01:02:52;;;;;;;3.67;0.90;;;;;;;;;;5048387;28;20268;-67
2021/01/14 01:05:18;;;;;;;4.97;1.07;;;;;;;;;;5045568;28;20653;-68
2021/01/14 01:07:50;;;;;;;3.67;1.40;;;;;;;;;;5053382;28;20174;-68
2021/01/14 01:10:16;;;;;;;7.83;1.17;;;;;;;;;;5047080;28;20563;-68
2021/01/14 01:12:41;;;;;;;4.70;1.43;;;;;;;;;;5046635;28;20194;-68
2021/01/14 01:15:07;;;;;;;3.73;1.00;;;;;;;;;;5048081;28;20612;-67
2021/01/14 01:17:32;;;;;;;5.40;1.23;;;;;;;;;;5029526;28;20201;-68
2021/01/14 01:19:57;;;;;;;5.47;0.90;;;;;;;;;;5050689;28;20599;-67
2021/01/14 01:22:22;;;;;;;4.10;1.00;;;;;;;;;;5052912;28;20308;-67
2021/01/14 01:24:48;;;;;;;6.53;1.27;;;;;;;;;;5048380;28;20227;-67
2021/01/14 01:27:13;;;;;;;8.90;1.40;;;;;;;;;;5053628;28;20934;-68
2021/01/14 01:29:38;;;;;;;11.13;1.80;;;;;;;;;;5048891;28;20182;-68
2021/01/14 01:32:04;;;;;;;4.67;1.00;;;;;;;;;;5049432;28;20241;-67
2021/01/14 01:34:29;;;;;;;6.40;1.23;;;;;;;;;;5049153;28;20679;-67
2021/01/14 01:36:54;;;;;;;5.23;1.33;;;;;;;;;;5050505;28;20177;-68
2021/01/14 01:39:19;;;;;;;5.17;1.13;;;;;;;;;;5058888;28;20181;-68
2021/01/14 01:41:45;;;;;;;2.97;1.20;;;;;;;;;;5050114;28;20268;-68
2021/01/14 01:44:10;;;;;;;4.90;1.03;;;;;;;;;;5056976;28;20213;-68
2021/01/14 01:46:35;;;;;;;6.10;1.07;;;;;;;;;;5048489;28;20178;-67
2021/01/14 01:49:01;;;;;;;5.00;1.33;;;;;;;;;;5054163;28;20189;-68
2021/01/14 01:51:30;;;;;;;7.43;1.40;;;;;;;;;;5049048;28;20240;-68
2021/01/14 01:53:56;;;;;;;2.70;1.20;;;;;;;;;;5048463;28;20858;-68
2021/01/14 01:56:21;;;;;;;6.27;1.07;;;;;;;;;;5049856;28;20554;-68
2021/01/14 01:58:46;;;;;;;4.43;1.07;;;;;;;;;;5049640;28;20204;-67
2021/01/14 02:01:12;;;;;;;8.07;1.00;;;;;;;;;;5048903;28;20579;-68
2021/01/14 02:03:37;;;;;;;4.70;1.03;;;;;;;;;;5050123;28;20224;-68
2021/01/14 02:06:03;;;;;;;5.83;1.10;;;;;;;;;;5053287;28;20227;-68
2021/01/14 02:08:38;;;;;;;1.77;0.70;;;;;;;;;;5046052;28;20184;-68
2021/01/14 02:11:22;;;;;;;4.27;0.90;;;;;;;;;;5051107;28;20208;-67
2021/01/14 02:14:06;;;;;;;2.83;1.00;;;;;;;;;;5049361;28;20200;-68
2021/01/14 02:16:32;;;;;;;3.90;0.90;;;;;;;;;;5048305;28;20770;-68
2021/01/14 02:18:58;;;;;;;4.50;0.97;;;;;;;;;;5047220;28;20269;-68
2021/01/14 02:21:24;;;;;;;5.03;0.97;;;;;;;;;;5046630;28;20567;-67
2021/01/14 02:24:25;;;;;;;4.73;1.00;;;;;;;;;;5050507;28;20213;-68
2021/01/14 02:26:51;;;;;;;2.43;1.27;;;;;;;;;;4948842;28;20185;-67
2021/01/14 02:29:16;;;;;;;2.80;0.97;;;;;;;;;;5028126;28;20206;-67
2021/01/14 02:31:42;;;;;;;1.63;0.70;;;;;;;;;;5048134;28;20232;-67
2021/01/14 02:34:07;;;;;;;6.17;1.00;;;;;;;;;;5052555;28;20208;-67
2021/01/14 02:36:32;;;;;;;6.00;1.80;;;;;;;;;;5031478;28;20618;-67
2021/01/14 02:38:57;;;;;;;4.10;0.70;;;;;;;;;;5050798;28;20577;-68
2021/01/14 02:41:23;;;;;;;4.63;1.63;;;;;;;;;;5051986;28;20235;-68
2021/01/14 02:43:48;;;;;;;2.70;0.70;;;;;;;;;;5038636;28;20573;-68
2021/01/14 02:46:15;;;;;;;4.93;1.30;;;;;;;;;;5047643;28;20193;-67
2021/01/14 02:48:58;;;;;;;7.17;1.67;;;;;;;;;;5048275;28;20212;-67
2021/01/14 02:51:29;;;;;;;4.60;1.37;;;;;;;;;;5046760;28;20275;-67
2021/01/14 02:53:55;;;;;;;5.77;1.30;;;;;;;;;;5055439;28;20234;-68
2021/01/14 02:56:20;;;;;;;5.07;1.20;;;;;;;;;;5047949;28;20181;-67
2021/01/14 02:58:46;;;;;;;2.87;1.40;;;;;;;;;;5049301;28;20227;-67
2021/01/14 03:01:11;;;;;;;4.63;0.97;;;;;;;;;;5044159;28;20186;-67
2021/01/14 03:03:36;;;;;;;3.20;0.90;;;;;;;;;;5052310;28;20204;-67
2021/01/14 03:06:01;;;;;;;4.80;1.30;;;;;;;;;;5053944;28;20584;-67
2021/01/14 03:08:26;;;;;;;1.67;1.00;;;;;;;;;;5047046;28;20272;-67
2021/01/14 03:10:51;;;;;;;1.47;0.63;;;;;;;;;;5048569;28;20206;-67
2021/01/14 03:13:16;;;;;;;4.60;1.00;;;;;;;;;;5047185;28;20217;-67
2021/01/14 03:15:42;;;;;;;3.50;0.93;;;;;;;;;;5050583;28;20174;-67
2021/01/14 03:18:09;;;;;;;4.30;1.60;;;;;;;;;;5047387;28;20193;-67
2021/01/14 03:20:34;;;;;;;3.10;0.90;;;;;;;;;;5046751;28;20181;-67
2021/01/14 03:22:59;;;;;;;3.13;1.33;;;;;;;;;;5047595;28;20220;-67
2021/01/14 03:25:25;;;;;;;3.53;0.97;;;;;;;;;;5050765;28;20185;-67
2021/01/14 03:27:50;;;;;;;4.07;0.90;;;;;;;;;;5045793;28;20307;-67
2021/01/14 03:30:15;;;;;;;4.87;1.20;;;;;;;;;;5045286;28;20243;-67
2021/01/14 03:32:41;;;;;;;2.27;0.93;;;;;;;;;;5050160;28;20273;-68
2021/01/14 03:35:06;;;;;;;1.80;0.70;;;;;;;;;;5031555;28;20556;-67
2021/01/14 03:37:32;;;;;;;3.63;1.10;;;;;;;;;;5046674;28;20272;-67
2021/01/14 03:39:57;;;;;;;9.10;1.20;;;;;;;;;;5046913;28;20184;-67
2021/01/14 03:42:22;;;;;;;3.33;1.00;;;;;;;;;;5049635;28;20236;-68
2021/01/14 03:44:48;;;;;;;4.83;0.90;;;;;;;;;;5052264;28;20353;-68
2021/01/14 03:47:14;;;;;;;2.13;1.37;;;;;;;;;;5043872;28;20192;-67
2021/01/14 03:49:39;;;;;;;4.17;1.80;;;;;;;;;;5047685;28;20181;-67
2021/01/14 03:52:04;;;;;;;4.50;0.90;;;;;;;;;;5048115;28;20244;-67
2021/01/14 03:54:30;;;;;;;4.90;0.83;;;;;;;;;;5046551;28;20216;-67
2021/01/14 03:56:55;;;;;;;2.07;1.13;;;;;;;;;;5043287;28;20192;-68
2021/01/14 03:59:20;;;;;;;3.10;1.20;;;;;;;;;;5048778;28;20231;-67
2021/01/14 04:01:45;;;;;;;2.03;1.10;;;;;;;;;;5046920;28;20185;-67
2021/01/14 04:04:10;;;;;;;2.87;0.87;;;;;;;;;;5047305;28;20216;-67
2021/01/14 04:06:36;;;;;;;4.40;1.00;;;;;;;;;;5046912;28;20190;-68
2021/01/14 04:09:05;;;;;;;3.83;1.53;;;;;;;;;;5042422;28;20675;-67
2021/01/14 04:11:31;;;;;;;2.63;0.90;;;;;;;;;;5047599;28;20209;-67
2021/01/14 04:13:56;;;;;;;2.83;0.80;;;;;;;;;;5049485;28;20194;-68
2021/01/14 04:16:21;;;;;;;5.47;1.00;;;;;;;;;;5047609;28;20200;-67
2021/01/14 04:18:47;;;;;;;4.13;1.10;;;;;;;;;;5046435;28;20181;-67
2021/01/14 04:21:13;;;;;;;2.17;0.90;;;;;;;;;;5050687;28;20216;-68
2021/01/14 04:23:38;;;;;;;3.53;1.17;;;;;;;;;;5046212;28;20220;-67
2021/01/14 04:26:03;;;;;;;3.20;1.10;;;;;;;;;;5045723;28;20173;-68
2021/01/14 04:28:28;;;;;;;2.27;1.23;;;;;;;;;;5045931;28;20185;-67
2021/01/14 04:30:54;;;;;;;6.33;1.97;;;;;;;;;;5045466;28;20205;-67
2021/01/14 04:33:19;;;;;;;3.83;1.10;;;;;;;;;;5049577;28;20203;-68
2021/01/14 04:35:44;;;;;;;4.17;1.47;;;;;;;;;;5052545;28;20177;-68
2021/01/14 04:38:09;;;;;;;4.90;1.27;;;;;;;;;;5038041;28;20240;-67
2021/01/14 04:40:34;;;;;;;2.67;0.87;;;;;;;;;;5044169;28;20189;-67
2021/01/14 04:43:00;;;;;;;2.87;1.50;;;;;;;;;;5025591;28;20268;-67
2021/01/14 04:45:25;;;;;;;3.27;0.80;;;;;;;;;;5044767;28;20189;-68
2021/01/14 04:47:50;;;;;;;3.60;0.90;;;;;;;;;;5034088;28;20261;-67
2021/01/14 04:50:18;;;;;;;3.40;0.90;;;;;;;;;;5048559;28;20675;-67
2021/01/14 04:52:46;;;;;;;2.33;1.00;;;;;;;;;;5050301;28;20193;-68
2021/01/14 04:55:13;;;;;;;4.80;1.00;;;;;;;;;;5048834;28;20227;-68
2021/01/14 04:57:41;;;;;;;3.00;1.00;;;;;;;;;;5051254;28;20182;-68
2021/01/14 05:00:10;;;;;;;2.30;1.03;;;;;;;;;;5050146;28;20603;-67
2021/01/14 05:02:38;;;;;;;4.07;1.00;;;;;;;;;;5033764;28;20599;-67
2021/01/14 05:05:08;;;;;;;3.47;1.03;;;;;;;;;;5051343;28;20185;-66
2021/01/14 05:07:33;;;;;;;5.20;1.67;;;;;;;;;;5051753;28;20232;-67
2021/01/14 05:10:00;;;;;;;4.30;1.07;;;;;;;;;;5050848;28;20186;-69
2021/01/14 05:12:25;;;;;;;7.30;1.57;;;;;;;;;;5049997;28;20296;-67
2021/01/14 05:14:50;;;;;;;4.97;1.17;;;;;;;;;;5054912;28;20670;-67
2021/01/14 05:17:16;;;;;;;4.63;1.23;;;;;;;;;;5051922;28;20181;-67
2021/01/14 05:19:41;;;;;;;3.37;1.17;;;;;;;;;;5033238;28;20196;-68
2021/01/14 05:22:06;;;;;;;2.73;0.90;;;;;;;;;;5037153;28;20178;-67
2021/01/14 05:24:32;;;;;;;3.87;1.33;;;;;;;;;;5047785;28;20550;-68
2021/01/14 05:26:57;;;;;;;1.17;0.90;;;;;;;;;;5049362;28;20267;-67
2021/01/14 05:29:22;;;;;;;4.83;1.00;;;;;;;;;;5050260;28;20181;-67
2021/01/14 05:31:48;;;;;;;6.83;1.20;;;;;;;;;;5049869;28;20572;-67
2021/01/14 05:34:14;;;;;;;3.97;1.10;;;;;;;;;;5046319;28;20221;-68
2021/01/14 05:37:05;;;;;;;2.60;0.90;;;;;;;;;;5051322;28;20254;-68
2021/01/14 05:39:40;;;;;;;5.47;0.83;;;;;;;;;;5046427;28;20576;-67
2021/01/14 05:42:09;;;;;;;6.10;1.33;;;;;;;;;;5048159;28;20765;-68
2021/01/14 05:44:40;;;;;;;7.50;1.10;;;;;;;;;;5047069;28;20181;-68
2021/01/14 05:47:24;;;;;;;3.00;1.00;;;;;;;;;;5048274;28;20185;-68
2021/01/14 05:49:53;;;;;;;4.03;1.13;;;;;;;;;;5046461;28;20184;-68
2021/01/14 05:52:21;;;;;;;8.17;1.17;;;;;;;;;;5052844;28;20828;-68
2021/01/14 05:54:52;;;;;;;5.63;1.87;;;;;;;;;;5048899;28;20177;-67
2021/01/14 05:57:18;;;;;;;5.30;1.20;;;;;;;;;;5049535;28;20264;-68
2021/01/14 05:59:49;;;;;;;8.33;1.10;;;;;;;;;;5035052;28;20181;-68
2021/01/14 06:02:25;;;;;;;4.10;1.00;;;;;;;;;;5052237;28;20233;-68
2021/01/14 06:04:51;;;;;;;6.47;1.40;;;;;;;;;;5048766;28;20181;-68
2021/01/14 06:07:16;;;;;;;4.63;1.10;;;;;;;;;;5050371;28;20192;-67
2021/01/14 06:09:42;;;;;;;4.30;1.50;;;;;;;;;;5047407;28;20583;-67
2021/01/14 06:12:08;;;;;;;6.57;1.97;;;;;;;;;;5050094;28;20256;-68
2021/01/14 06:14:33;;;;;;;4.53;1.20;;;;;;;;;;5049245;28;20224;-67
2021/01/14 06:17:00;;;;;;;2.73;1.57;;;;;;;;;;5049726;28;20182;-68
2021/01/14 06:19:25;;;;;;;7.70;1.73;;;;;;;;;;5049705;28;20174;-68
2021/01/14 06:21:55;;;;;;;4.27;1.30;;;;;;;;;;5038611;28;20179;-67
2021/01/14 06:24:30;;;;;;;4.30;2.10;;;;;;;;;;5050136;28;20215;-68
2021/01/14 06:26:56;;;;;;;5.43;1.50;;;;;;;;;;5046525;28;20264;-68
2021/01/14 06:29:24;;;;;;;7.23;1.43;;;;;;;;;;5044848;28;20174;-68
2021/01/14 06:31:49;;;;;;;4.87;1.77;;;;;;;;;;5045276;28;20701;-68
2021/01/14 06:34:15;;;;;;;4.70;1.93;;;;;;;;;;5049212;28;20198;-68
2021/01/14 06:36:44;;;;;;;2.53;1.20;;;;;;;;;;5046762;28;20182;-68
2021/01/14 06:39:11;;;;;;;10.27;1.40;;;;;;;;;;5049443;28;20237;-68
2021/01/14 06:41:37;;;;;;;5.03;1.17;;;;;;;;;;5048933;28;20203;-67
2021/01/14 06:44:05;;;;;;;5.00;1.30;;;;;;;;;;5041222;28;20193;-67
2021/01/14 06:46:32;;;;;;;6.37;2.17;;;;;;;;;;5024603;28;20459;-68
2021/01/14 06:49:03;;;;;;;9.63;2.40;;;;;;;;;;5050241;28;20194;-67
2021/01/14 06:51:45;;;;;;;5.87;2.50;;;;;;;;;;5043421;28;20650;-68
2021/01/14 06:54:11;;;;;;;3.33;2.03;;;;;;;;;;5046324;28;20276;-67
2021/01/14 06:56:47;;;;;;;6.10;2.10;;;;;;;;;;5050255;28;20266;-67
2021/01/14 06:59:15;;;;;;;3.37;1.83;;;;;;;;;;5045551;28;20178;-67
2021/01/14 07:01:44;;;;;;;3.40;1.47;;;;;;;;;;5038112;28;20181;-68
2021/01/14 07:04:12;;;;;;;5.87;2.60;;;;;;;;;;5050160;28;20666;-67
2021/01/14 07:06:42;;;;;;;3.67;1.90;;;;;;;;;;5050928;28;20190;-68
2021/01/14 07:09:17;;;;;;;4.23;1.67;;;;;;;;;;5048725;28;20421;-67
2021/01/14 07:11:42;;;;;;;4.53;2.10;;;;;;;;;;5047934;28;20252;-67
2021/01/14 07:14:11;;;;;;;2.50;1.33;;;;;;;;;;5044790;28;20225;-67
2021/01/14 07:16:40;;;;;;;5.37;1.70;;;;;;;;;;5042943;28;20201;-67
2021/01/14 07:19:05;;;;;;;5.97;1.60;;;;;;;;;;5046989;28;20174;-67
2021/01/14 07:21:34;;;;;;;5.43;1.87;;;;;;;;;;5053416;28;20185;-67
2021/01/14 07:24:06;;;;;;;7.37;1.67;;;;;;;;;;5049517;28;20217;-67
2021/01/14 07:26:32;;;;;;;3.07;1.67;;;;;;;;;;5042968;28;20261;-67
2021/01/14 07:29:00;;;;;;;3.87;2.27;;;;;;;;;;5054575;28;20250;-67
2021/01/14 07:31:26;;;;;;;5.40;2.17;;;;;;;;;;5050673;28;20201;-68
2021/01/14 07:33:52;;;;;;;8.63;1.93;;;;;;;;;;5051844;28;20236;-68
2021/01/14 07:36:18;;;;;;;4.77;2.13;;;;;;;;;;5049269;28;20177;-68
2021/01/14 07:38:47;;;;;;;5.73;1.60;;;;;;;;;;5049309;28;20177;-68
2021/01/14 07:41:12;;;;;;;3.33;1.40;;;;;;;;;;5048973;28;20618;-68
2021/01/14 07:43:37;;;;;;;6.47;2.70;;;;;;;;;;5048169;28;20206;-68
2021/01/14 07:46:13;;;;;;;2.67;1.70;;;;;;;;;;5048712;28;20303;-68
2021/01/14 07:48:39;;;;;;;3.47;1.37;;;;;;;;;;5030330;28;20677;-67
2021/01/14 07:51:04;;;;;;;5.67;1.70;;;;;;;;;;5047262;28;20202;-68
2021/01/14 07:53:29;;;;;;;4.43;1.90;;;;;;;;;;5038343;28;20697;-68
2021/01/14 07:55:55;;;;;;;5.27;1.90;;;;;;;;;;5048981;28;20173;-68
2021/01/14 07:58:24;;;;;;;3.67;1.60;;;;;;;;;;5046659;28;20190;-68
2021/01/14 08:01:01;;;;;;;5.00;1.70;;;;;;;;;;5056027;28;20631;-68
2021/01/14 08:03:30;;;;;;;6.30;2.23;;;;;;;;;;5048536;28;20247;-68
2021/01/14 08:05:56;;;;;;;4.73;1.43;;;;;;;;;;5046698;28;20194;-68
2021/01/14 08:08:27;;;;;;;3.87;1.37;;;;;;;;;;5032842;28;20669;-68
2021/01/14 08:11:08;;;;;;;8.63;2.10;;;;;;;;;;5042689;28;20201;-67
2021/01/14 08:13:53;;;;;;;15.80;2.87;;;;;;;;;;5045642;28;20204;-68
2021/01/14 08:16:29;;;;;;;6.30;1.60;;;;;;;;;;5047647;28;20173;-67
2021/01/14 08:19:07;;;;;;;2.73;1.17;;;;;;;;;;5044875;28;20188;-68
2021/01/14 08:21:32;;;;;;;5.13;1.90;;;;;;;;;;5039976;28;20197;-68
2021/01/14 08:23:58;;;;;;;4.97;1.40;;;;;;;;;;5047546;28;20217;-67
2021/01/14 08:26:23;;;;;;;5.00;1.57;;;;;;;;;;5044825;28;20558;-68
2021/01/14 08:28:57;;;;;;;5.45;1.50;;;;;;;;;;5045475;28;20235;-67
2021/01/14 08:31:38;;;;;;;8.07;2.03;;;;;;;;;;5048629;28;20192;-67
2021/01/14 08:34:06;;;;;;;3.80;1.83;;;;;;;;;;5050675;28;20201;-68
2021/01/14 08:36:40;;;;;;;6.43;1.60;;;;;;;;;;5046119;28;20174;-68
2021/01/14 08:39:05;;;;;;;5.07;1.40;;;;;;;;;;5050244;28;20667;-68
2021/01/14 08:41:34;;;;;;;6.27;2.10;;;;;;;;;;5052805;28;20182;-67
2021/01/14 08:44:03;;;;;;;7.40;1.30;;;;;;;;;;5039982;28;20193;-68
2021/01/14 08:46:38;;;;;;;4.90;1.37;;;;;;;;;;5040116;28;20316;-68
2021/01/14 08:49:10;;;;;;;7.90;1.80;;;;;;;;;;5035558;28;20727;-68
2021/01/14 08:51:37;;;;;;;6.57;2.23;;;;;;;;;;5055578;28;20209;-68
2021/01/14 08:54:04;;;;;;;7.23;2.57;;;;;;;;;;5050139;28;20193;-67
2021/01/14 08:56:29;;;;;;;12.60;1.80;;;;;;;;;;5055996;28;20556;-68
2021/01/14 08:58:58;;;;;;;6.33;1.70;;;;;;;;;;5052573;28;20173;-68
2021/01/14 09:01:24;;;;;;;5.80;1.60;;;;;;;;;;5033665;28;20238;-68
2021/01/14 09:03:51;;;;;;;7.63;2.57;;;;;;;;;;5048835;28;20259;-68
2021/01/14 09:06:28;;;;;;;6.23;2.07;;;;;;;;;;5034531;28;20217;-68
2021/01/14 09:08:54;;;;;;;6.47;1.40;;;;;;;;;;5053700;28;20178;-68
2021/01/14 09:11:22;;;;;;;7.30;1.23;;;;;;;;;;5034120;28;20205;-67
2021/01/14 09:13:48;;;;;;;4.67;1.57;;;;;;;;;;5051988;28;20666;-67
2021/01/14 09:16:13;;;;;;;5.77;2.07;;;;;;;;;;5048510;28;20182;-67
2021/01/14 09:18:39;;;;;;;4.37;1.50;;;;;;;;;;5042228;28;20170;-68
2021/01/14 09:21:05;;;;;;;5.23;1.30;;;;;;;;;;5052824;28;20393;-68
2021/01/14 09:23:35;;;;;;;7.00;1.47;;;;;;;;;;5045806;28;20263;-67
2021/01/14 09:26:03;;;;;;;10.17;2.17;;;;;;;;;;5050662;28;20223;-68
2021/01/14 09:28:29;;;;;;;2.90;1.57;;;;;;;;;;5052239;28;20177;-67
2021/01/14 09:31:01;;;;;;;5.83;1.57;;;;;;;;;;5053504;28;20247;-67
2021/01/14 09:33:28;;;;;;;7.23;1.70;;;;;;;;;;5052064;28;20194;-68
2021/01/14 09:35:57;;;;;;;5.20;1.70;;;;;;;;;;5051169;28;20185;-67
2021/01/14 09:38:23;;;;;;;7.17;1.83;;;;;;;;;;5051457;28;20190;-67
2021/01/14 09:40:53;;;;;;;6.57;2.23;;;;;;;;;;5049417;28;20177;-67
2021/01/14 09:43:19;;;;;;;5.63;1.77;;;;;;;;;;5050367;28;20197;-68
2021/01/14 09:45:47;;;;;;;2.40;1.60;;;;;;;;;;5051070;28;20261;-68
2021/01/14 09:48:12;;;;;;;3.17;1.80;;;;;;;;;;5050160;28;20178;-68
2021/01/14 09:50:39;;;;;;;5.80;3.00;;;;;;;;;;5051523;28;20202;-68
2021/01/14 09:53:08;;;;;;;6.20;1.70;;;;;;;;;;5048347;28;20288;-67
2021/01/14 09:55:33;;;;;;;3.63;1.73;;;;;;;;;;5051169;28;20643;-68
2021/01/14 09:57:59;;;;;;;6.53;2.37;;;;;;;;;;5052965;28;20176;-68
2021/01/14 10:00:27;;;;;;;4.60;1.53;;;;;;;;;;5048037;28;20258;-67
2021/01/14 10:02:57;;;;;;;10.47;2.20;;;;;;;;;;5044436;28;20198;-68
2021/01/14 10:05:23;;;;;;;2.53;1.60;;;;;;;;;;5049356;28;20646;-67
2021/01/14 10:07:49;;;;;;;3.53;1.40;;;;;;;;;;5056734;28;20181;-68
2021/01/14 10:10:15;;;;;;;2.50;1.80;;;;;;;;;;5048680;28;20174;-68
2021/01/14 10:12:40;;;;;;;5.67;1.63;;;;;;;;;;5057367;28;20302;-67
2021/01/14 10:15:08;;;;;;;8.33;2.27;;;;;;;;;;5034881;28;20173;-68
2021/01/14 10:17:38;;;;;;;5.07;2.10;;;;;;;;;;5050301;28;20196;-68
2021/01/14 10:20:04;;;;;;;4.37;1.90;;;;;;;;;;5047554;28;20678;-68
2021/01/14 10:22:29;;;;;;;4.23;2.03;;;;;;;;;;5057301;28;20213;-68
2021/01/14 10:25:06;;;;;;;6.97;2.23;;;;;;;;;;5056568;28;20190;-67
2021/01/14 10:27:31;;;;;;;5.40;2.20;;;;;;;;;;5047458;28;20184;-68
2021/01/14 10:29:59;;;;;;;5.53;1.93;;;;;;;;;;5040231;28;20181;-68
2021/01/14 10:32:24;;;;;;;6.97;2.20;;;;;;;;;;5046146;28;20294;-68
2021/01/14 10:34:50;;;;;;;6.63;1.87;;;;;;;;;;5055372;28;20650;-67
2021/01/14 10:37:20;;;;;;;5.93;2.20;;;;;;;;;;5049907;28;20872;-68
2021/01/14 10:39:45;;;;;;;5.33;2.30;;;;;;;;;;5043516;28;20182;-67
2021/01/14 10:42:29;;;;;;;6.80;1.97;;;;;;;;;;5046557;28;20402;-67
2021/01/14 10:44:55;;;;;;;7.57;2.00;;;;;;;;;;5053105;28;20173;-67
2021/01/14 10:47:21;;;;;;;7.03;2.00;;;;;;;;;;5049846;28;20191;-67
2021/01/14 10:49:47;;;;;;;5.10;2.20;;;;;;;;;;5051817;28;20188;-68
2021/01/14 10:52:12;;;;;;;7.77;2.53;;;;;;;;;;5051421;28;20200;-68
2021/01/14 10:54:37;;;;;;;6.33;2.03;;;;;;;;;;5049978;28;20178;-68
2021/01/14 10:57:02;;;;;;;6.00;1.97;;;;;;;;;;5047715;28;20659;-67
2021/01/14 10:59:27;;;;;;;3.77;2.40;;;;;;;;;;5050247;28;21668;-68
2021/01/14 11:02:02;;;;;;;5.87;2.30;;;;;;;;;;5048331;28;20178;-68
2021/01/14 11:04:28;;;;;;;4.33;2.20;;;;;;;;;;5032973;28;20260;-68
2021/01/14 11:06:53;;;;;;;5.67;2.33;;;;;;;;;;5048165;28;20256;-67
2021/01/14 11:09:18;;;;;;;5.53;2.20;;;;;;;;;;5048713;28;20179;-68
2021/01/14 11:11:43;;;;;;;8.13;2.87;;;;;;;;;;5050433;28;20288;-68
2021/01/14 11:14:14;;;;;;;6.10;2.43;;;;;;;;;;5049420;28;20686;-68
2021/01/14 11:16:39;;;;;;;9.83;3.53;;;;;;;;;;5047694;28;20182;-68
2021/01/14 11:19:04;;;;;;;9.87;2.43;;;;;;;;;;5048409;28;20185;-68
2021/01/14 11:21:31;;;;;;;6.43;2.40;;;;;;;;;;5049253;28;20625;-67
2021/01/14 11:23:57;;;;;;;6.37;2.63;;;;;;;;;;5031060;28;20220;-67
2021/01/14 11:26:22;;;;;;;5.63;2.73;;;;;;;;;;5029044;28;20257;-68
2021/01/14 11:28:48;;;;;;;7.07;2.87;;;;;;;;;;5027331;28;20200;-68
2021/01/14 11:31:14;;;;;;;4.10;3.07;;;;;;;;;;5049849;28;20220;-68
2021/01/14 11:33:40;;;;;;;7.27;2.80;;;;;;;;;;5049323;28;20189;-67
2021/01/14 11:36:06;;;;;;;7.47;2.67;;;;;;;;;;5054547;28;20195;-68
2021/01/14 11:38:31;;;;;;;6.53;2.83;;;;;;;;;;5048913;28;20181;-68
2021/01/14 11:40:56;;;;;;;8.67;3.20;;;;;;;;;;5049426;28;20204;-68
2021/01/14 11:43:22;;;;;;;5.57;2.47;;;;;;;;;;5046629;28;20765;-68
2021/01/14 11:45:48;;;;;;;7.27;2.90;;;;;;;;;;5051975;28;20296;-68
2021/01/14 11:48:13;;;;;;;6.93;2.97;;;;;;;;;;5025797;28;20715;-68
2021/01/14 11:50:38;;;;;;;7.47;2.90;;;;;;;;;;5048062;28;20192;-68
2021/01/14 11:53:03;;;;;;;7.93;3.27;;;;;;;;;;5048820;28;20186;-68
2021/01/14 11:55:28;;;;;;;7.00;2.80;;;;;;;;;;5047771;28;20177;-68
2021/01/14 11:57:54;;;;;;;5.20;2.73;;;;;;;;;;5047482;28;20236;-67
2021/01/14 12:00:19;;;;;;;4.27;2.60;;;;;;;;;;5026426;28;20182;-67
2021/01/14 12:02:47;;;;;;;10.07;4.07;;;;;;;;;;5029876;28;20193;-68
2021/01/14 12:05:12;;;;;;;5.43;2.83;;;;;;;;;;5043382;28;20206;-68
2021/01/14 12:07:38;;;;;;;9.53;3.00;;;;;;;;;;5029953;28;20650;-67
2021/01/14 12:10:04;;;;;;;5.73;3.13;;;;;;;;;;5049705;28;20186;-67
2021/01/14 12:12:29;;;;;;;5.73;3.30;;;;;;;;;;5046037;28;20209;-68
2021/01/14 12:14:54;;;;;;;4.47;2.70;;;;;;;;;;5031205;28;20670;-67
2021/01/14 12:17:19;;;;;;;6.07;2.97;;;;;;;;;;5048396;28;20181;-68
2021/01/14 12:19:44;;;;;;;4.70;2.77;;;;;;;;;;5048707;28;20186;-68
2021/01/14 12:22:09;;;;;;;7.53;3.07;;;;;;;;;;5049601;28;20206;-68
2021/01/14 12:24:35;;;;;;;3.90;2.50;;;;;;;;;;5049002;28;20411;-68
2021/01/14 12:27:00;;;;;;;5.00;3.00;;;;;;;;;;5046239;28;20185;-68
2021/01/14 12:29:25;;;;;;;7.00;2.53;;;;;;;;;;5052562;28;20560;-68
2021/01/14 12:31:51;;;;;;;7.67;2.77;;;;;;;;;;5048307;28;20219;-67
2021/01/14 12:34:17;;;;;;;3.87;2.60;;;;;;;;;;5049248;28;20213;-68
2021/01/14 12:36:42;;;;;;;4.10;3.10;;;;;;;;;;5048525;28;20189;-68
2021/01/14 12:39:07;;;;;;;3.90;3.10;;;;;;;;;;5047441;28;21163;-68
2021/01/14 12:41:33;;;;;;;5.80;2.60;;;;;;;;;;5046677;28;20599;-67
2021/01/14 12:43:58;;;;;;;4.83;2.70;;;;;;;;;;5039488;28;20201;-67
2021/01/14 12:46:45;;;;;;;4.20;2.97;;;;;;;;;;5047203;28;20722;-67
2021/01/14 12:49:11;;;;;;;10.57;4.23;;;;;;;;;;5047971;28;20712;-68
2021/01/14 12:51:37;;;;;;;8.60;3.53;;;;;;;;;;5048020;28;20284;-68
2021/01/14 12:54:02;;;;;;;4.97;2.63;;;;;;;;;;5043339;28;24914;-67
2021/01/14 12:56:27;;;;;;;3.63;2.57;;;;;;;;;;5048145;28;21883;-67
2021/01/14 12:58:53;;;;;;;4.90;3.00;;;;;;;;;;5049974;28;20239;-68
2021/01/14 13:01:30;;;;;;;4.17;3.10;;;;;;;;;;5047755;28;20182;-67
2021/01/14 13:03:57;;;;;;;6.73;3.33;;;;;;;;;;5046923;28;20232;-68
2021/01/14 13:06:26;;;;;;;5.53;2.73;;;;;;;;;;5029213;28;21702;-67
2021/01/14 13:08:51;;;;;;;5.77;3.00;;;;;;;;;;5047118;28;20575;-68
2021/01/14 13:11:17;;;;;;;7.40;3.30;;;;;;;;;;5050394;28;20210;-68
2021/01/14 13:13:42;;;;;;;4.60;2.87;;;;;;;;;;5029600;28;20250;-68
2021/01/14 13:16:07;;;;;;;4.87;3.17;;;;;;;;;;5046286;28;20181;-67
2021/01/14 13:18:32;;;;;;;6.00;3.17;;;;;;;;;;5048117;28;20179;-68
2021/01/14 13:20:58;;;;;;;6.70;3.03;;;;;;;;;;5048515;28;20651;-68
2021/01/14 13:23:23;;;;;;;4.83;2.47;;;;;;;;;;5050976;28;20312;-68
2021/01/14 13:25:48;;;;;;;5.50;3.03;;;;;;;;;;5054722;28;20196;-67
2021/01/14 13:28:13;;;;;;;3.30;2.50;;;;;;;;;;5050286;28;20189;-68
2021/01/14 13:30:38;;;;;;;4.87;2.37;;;;;;;;;;5050328;28;20182;-68
2021/01/14 13:33:05;;;;;;;4.57;2.60;;;;;;;;;;5050161;28;20207;-67
2021/01/14 13:35:30;;;;;;;6.23;2.97;;;;;;;;;;5049141;28;20177;-68
2021/01/14 13:37:55;;;;;;;6.87;2.40;;;;;;;;;;5048905;28;20189;-68
2021/01/14 13:40:21;;;;;;;4.83;2.77;;;;;;;;;;5032381;28;20626;-68
2021/01/14 13:42:46;;;;;;;3.63;2.60;;;;;;;;;;5060417;28;20698;-68
2021/01/14 13:45:11;;;;;;;6.90;3.03;;;;;;;;;;5047382;28;20232;-68
2021/01/14 13:47:36;;;;;;;6.63;3.00;;;;;;;;;;5050337;28;20264;-67
2021/01/14 13:50:02;;;;;;;4.57;2.80;;;;;;;;;;5050685;28;20185;-68
2021/01/14 13:52:27;;;;;;;4.53;3.17;;;;;;;;;;5053469;28;20228;-68
2021/01/14 13:54:53;;;;;;;6.43;3.70;;;;;;;;;;5045638;28;20174;-67
2021/01/14 13:57:18;;;;;;;5.53;2.72;;;;;;;;;;5039554;28;20555;-68
2021/01/14 13:59:43;;;;;;;7.40;4.00;;;;;;;;;;5035801;28;20170;-68
2021/01/14 14:02:08;;;;;;;7.00;2.50;;;;;;;;;;5030809;28;20184;-68
2021/01/14 14:04:33;;;;;;;7.60;3.03;;;;;;;;;;5045084;28;20177;-68
2021/01/14 14:06:59;;;;;;;4.40;3.03;;;;;;;;;;5049522;28;20184;-67
2021/01/14 14:09:25;;;;;;;7.60;2.70;;;;;;;;;;5050407;28;20687;-67
2021/01/14 14:11:52;;;;;;;5.90;3.17;;;;;;;;;;5047931;28;20233;-68
2021/01/14 14:14:17;;;;;;;10.67;3.73;;;;;;;;;;5048859;28;20212;-67
2021/01/14 14:16:43;;;;;;;5.63;2.80;;;;;;;;;;5049607;28;20174;-68
2021/01/14 14:19:08;;;;;;;6.40;3.03;;;;;;;;;;5045192;28;20660;-67
2021/01/14 14:21:33;;;;;;;6.40;3.20;;;;;;;;;;5050542;28;20177;-68
2021/01/14 14:23:59;;;;;;;6.60;3.03;;;;;;;;;;5031774;28;20308;-67
2021/01/14 14:26:28;;;;;;;4.97;3.53;;;;;;;;;;5050113;28;20220;-67
2021/01/14 14:28:53;;;;;;;5.23;3.33;;;;;;;;;;5032800;28;20178;-67
2021/01/14 14:31:18;;;;;;;4.63;3.17;;;;;;;;;;5051090;28;20270;-68
2021/01/14 14:33:43;;;;;;;6.65;3.35;;;;;;;;;;5034473;28;20193;-67
2021/01/14 14:36:09;;;;;;;7.30;3.17;;;;;;;;;;5049515;28;20650;-68
2021/01/14 14:38:34;;;;;;;6.30;3.10;;;;;;;;;;5050085;28;20195;-67
2021/01/14 14:41:01;;;;;;;7.07;2.97;;;;;;;;;;5047366;28;20189;-67
2021/01/14 14:43:26;;;;;;;5.23;3.57;;;;;;;;;;5037421;28;20245;-68